sensor_id;sensor_type;location;lat;lon;timestamp;temperature;humidity
83729;DHT22;73707;56.480;-2.840;2023-12-20T00:00:38;8.50;99.90
83729;DHT22;73707;56.480;-2.840;2023-12-20T00:03:04;8.50;99.90
83729;DHT22;73707;56.480;-2.840;2023-12-20T00:05:30;8.50;99.90
83729;DHT22;73707;56.480;-2.840;2023-12-20T00:07:59;8.50;99.90
83729;DHT22;73707;56.480;-2.840;2023-12-20T00:10:25;8.50;99.90
83729;DHT22;73707;56.480;-2.840;2023-12-20T00:12:51;8.50;99.90
83729;DHT22;73707;56.480;-2.840;2023-12-20T00:15:16;8.50;99.90
83729;DHT22;73707;56.480;-2.840;2023-12-20T00:17:42;8.50;99.90
83729;DHT22;73707;56.480;-2.840;2023-12-20T00:20:11;8.50;99.90
83729;DHT22;73707;56.480;-2.840;2023-12-20T00:22:37;8.50;99.90
83729;DHT22;73707;56.480;-2.840;2023-12-20T00:25:02;8.50;99.90
83729;DHT22;73707;56.480;-2.840;2023-12-20T00:27:28;8.50;99.90
83729;DHT22;73707;56.480;-2.840;2023-12-20T00:29:54;8.50;99.90
83729;DHT22;73707;56.480;-2.840;2023-12-20T00:32:19;8.50;99.90
83729;DHT22;73707;56.480;-2.840;2023-12-20T00:34:45;8.50;99.90
83729;DHT22;73707;56.480;-2.840;2023-12-20T00:37:11;8.60;99.90
83729;DHT22;73707;56.480;-2.840;2023-12-20T00:39:36;8.50;99.90
83729;DHT22;73707;56.480;-2.840;2023-12-20T00:42:02;8.50;99.90
83729;DHT22;73707;56.480;-2.840;2023-12-20T00:44:28;8.50;99.90
83729;DHT22;73707;56.480;-2.840;2023-12-20T00:46:54;8.60;99.90
83729;DHT22;73707;56.480;-2.840;2023-12-20T00:49:19;8.60;99.90
83729;DHT22;73707;56.480;-2.840;2023-12-20T00:51:45;8.60;99.90
83729;DHT22;73707;56.480;-2.840;2023-12-20T00:54:12;8.60;99.90
83729;DHT22;73707;56.480;-2.840;2023-12-20T00:56:39;8.60;99.90
83729;DHT22;73707;56.480;-2.840;2023-12-20T00:59:04;8.60;99.90
83729;DHT22;73707;56.480;-2.840;2023-12-20T01:01:30;8.60;99.90
83729;DHT22;73707;56.480;-2.840;2023-12-20T01:03:58;8.60;99.90
83729;DHT22;73707;56.480;-2.840;2023-12-20T01:06:25;8.60;99.90
83729;DHT22;73707;56.480;-2.840;2023-12-20T01:08:50;8.60;99.90
83729;DHT22;73707;56.480;-2.840;2023-12-20T01:11:16;8.60;99.90
83729;DHT22;73707;56.480;-2.840;2023-12-20T01:13:42;8.60;99.90
83729;DHT22;73707;56.480;-2.840;2023-12-20T01:16:10;8.60;99.90
83729;DHT22;73707;56.480;-2.840;2023-12-20T01:18:37;8.60;99.90
83729;DHT22;73707;56.480;-2.840;2023-12-20T01:21:03;8.60;99.90
83729;DHT22;73707;56.480;-2.840;2023-12-20T01:23:29;8.60;99.90
83729;DHT22;73707;56.480;-2.840;2023-12-20T01:25:55;8.70;99.90
83729;DHT22;73707;56.480;-2.840;2023-12-20T01:28:20;8.60;99.90
83729;DHT22;73707;56.480;-2.840;2023-12-20T01:30:46;8.60;99.90
83729;DHT22;73707;56.480;-2.840;2023-12-20T01:33:12;8.70;99.90
83729;DHT22;73707;56.480;-2.840;2023-12-20T01:35:38;8.70;99.90
83729;DHT22;73707;56.480;-2.840;2023-12-20T01:38:03;8.70;99.90
83729;DHT22;73707;56.480;-2.840;2023-12-20T01:40:29;8.70;99.90
83729;DHT22;73707;56.480;-2.840;2023-12-20T01:43:03;8.70;99.90
83729;DHT22;73707;56.480;-2.840;2023-12-20T01:45:30;8.70;99.90
83729;DHT22;73707;56.480;-2.840;2023-12-20T01:47:57;8.70;99.90
83729;DHT22;73707;56.480;-2.840;2023-12-20T01:50:24;8.70;99.90
83729;DHT22;73707;56.480;-2.840;2023-12-20T01:52:50;8.60;99.90
83729;DHT22;73707;56.480;-2.840;2023-12-20T01:55:19;8.60;99.90
83729;DHT22;73707;56.480;-2.840;2023-12-20T01:57:46;8.50;99.90
83729;DHT22;73707;56.480;-2.840;2023-12-20T02:00:13;8.50;99.90
83729;DHT22;73707;56.480;-2.840;2023-12-20T02:02:40;8.50;99.90
83729;DHT22;73707;56.480;-2.840;2023-12-20T02:05:07;8.50;99.90
83729;DHT22;73707;56.480;-2.840;2023-12-20T02:07:33;8.50;99.90
83729;DHT22;73707;56.480;-2.840;2023-12-20T02:10:01;8.50;99.90
83729;DHT22;73707;56.480;-2.840;2023-12-20T02:12:27;8.50;99.90
83729;DHT22;73707;56.480;-2.840;2023-12-20T02:14:53;8.50;99.90
83729;DHT22;73707;56.480;-2.840;2023-12-20T02:17:20;8.50;99.90
83729;DHT22;73707;56.480;-2.840;2023-12-20T02:19:46;8.50;99.90
83729;DHT22;73707;56.480;-2.840;2023-12-20T02:22:14;8.50;99.90
83729;DHT22;73707;56.480;-2.840;2023-12-20T02:24:40;8.50;99.90
83729;DHT22;73707;56.480;-2.840;2023-12-20T02:27:07;8.50;99.90
83729;DHT22;73707;56.480;-2.840;2023-12-20T02:29:33;8.50;99.90
83729;DHT22;73707;56.480;-2.840;2023-12-20T02:31:59;8.50;99.90
83729;DHT22;73707;56.480;-2.840;2023-12-20T02:34:25;8.50;99.90
83729;DHT22;73707;56.480;-2.840;2023-12-20T02:36:51;8.50;99.90
83729;DHT22;73707;56.480;-2.840;2023-12-20T02:39:17;8.50;99.90
83729;DHT22;73707;56.480;-2.840;2023-12-20T02:41:43;8.50;99.90
83729;DHT22;73707;56.480;-2.840;2023-12-20T02:44:09;8.50;99.90
83729;DHT22;73707;56.480;-2.840;2023-12-20T02:46:35;8.50;99.90
83729;DHT22;73707;56.480;-2.840;2023-12-20T02:49:00;8.40;99.90
83729;DHT22;73707;56.480;-2.840;2023-12-20T02:51:26;8.40;99.90
83729;DHT22;73707;56.480;-2.840;2023-12-20T02:53:52;8.40;99.90
83729;DHT22;73707;56.480;-2.840;2023-12-20T02:56:17;8.40;99.90
83729;DHT22;73707;56.480;-2.840;2023-12-20T02:58:43;8.40;99.90
83729;DHT22;73707;56.480;-2.840;2023-12-20T03:01:09;8.30;99.90
83729;DHT22;73707;56.480;-2.840;2023-12-20T03:03:35;8.30;99.90
83729;DHT22;73707;56.480;-2.840;2023-12-20T03:06:00;8.30;99.90
83729;DHT22;73707;56.480;-2.840;2023-12-20T03:08:26;8.30;99.90
83729;DHT22;73707;56.480;-2.840;2023-12-20T03:10:52;8.30;99.90
83729;DHT22;73707;56.480;-2.840;2023-12-20T03:13:19;8.30;99.90
83729;DHT22;73707;56.480;-2.840;2023-12-20T03:15:45;8.30;99.90
83729;DHT22;73707;56.480;-2.840;2023-12-20T03:18:11;8.30;99.90
83729;DHT22;73707;56.480;-2.840;2023-12-20T03:20:37;8.30;99.90
83729;DHT22;73707;56.480;-2.840;2023-12-20T03:23:03;8.30;99.90
83729;DHT22;73707;56.480;-2.840;2023-12-20T03:25:29;8.30;99.90
83729;DHT22;73707;56.480;-2.840;2023-12-20T03:27:55;8.30;99.90
83729;DHT22;73707;56.480;-2.840;2023-12-20T03:30:21;8.30;99.90
83729;DHT22;73707;56.480;-2.840;2023-12-20T03:32:47;8.30;99.90
83729;DHT22;73707;56.480;-2.840;2023-12-20T03:35:13;8.40;99.90
83729;DHT22;73707;56.480;-2.840;2023-12-20T03:37:38;8.40;99.90
83729;DHT22;73707;56.480;-2.840;2023-12-20T03:40:04;8.40;99.90
83729;DHT22;73707;56.480;-2.840;2023-12-20T03:42:30;8.40;99.90
83729;DHT22;73707;56.480;-2.840;2023-12-20T03:44:56;8.40;99.90
83729;DHT22;73707;56.480;-2.840;2023-12-20T03:47:22;8.40;99.90
83729;DHT22;73707;56.480;-2.840;2023-12-20T03:49:47;8.50;99.90
83729;DHT22;73707;56.480;-2.840;2023-12-20T03:52:13;8.50;99.90
83729;DHT22;73707;56.480;-2.840;2023-12-20T03:54:39;8.50;99.90
83729;DHT22;73707;56.480;-2.840;2023-12-20T03:57:07;8.50;99.90
83729;DHT22;73707;56.480;-2.840;2023-12-20T03:59:36;8.50;99.90
83729;DHT22;73707;56.480;-2.840;2023-12-20T04:02:02;8.60;99.90
83729;DHT22;73707;56.480;-2.840;2023-12-20T04:04:28;8.50;99.90
83729;DHT22;73707;56.480;-2.840;2023-12-20T04:06:54;8.50;99.90
83729;DHT22;73707;56.480;-2.840;2023-12-20T04:09:19;8.60;99.90
83729;DHT22;73707;56.480;-2.840;2023-12-20T04:11:45;8.50;99.90
83729;DHT22;73707;56.480;-2.840;2023-12-20T04:14:11;8.50;99.90
83729;DHT22;73707;56.480;-2.840;2023-12-20T04:16:37;8.50;99.90
83729;DHT22;73707;56.480;-2.840;2023-12-20T04:19:02;8.50;99.90
83729;DHT22;73707;56.480;-2.840;2023-12-20T04:21:28;8.50;99.90
83729;DHT22;73707;56.480;-2.840;2023-12-20T04:23:54;8.50;99.90
83729;DHT22;73707;56.480;-2.840;2023-12-20T04:26:19;8.50;99.90
83729;DHT22;73707;56.480;-2.840;2023-12-20T04:28:45;8.50;99.90
83729;DHT22;73707;56.480;-2.840;2023-12-20T04:31:11;8.50;99.90
83729;DHT22;73707;56.480;-2.840;2023-12-20T04:33:36;8.50;99.90
83729;DHT22;73707;56.480;-2.840;2023-12-20T04:36:02;8.50;99.90
83729;DHT22;73707;56.480;-2.840;2023-12-20T04:38:28;8.50;99.90
83729;DHT22;73707;56.480;-2.840;2023-12-20T04:40:54;8.50;99.90
83729;DHT22;73707;56.480;-2.840;2023-12-20T04:43:20;8.50;99.90
83729;DHT22;73707;56.480;-2.840;2023-12-20T04:45:45;8.50;99.90
83729;DHT22;73707;56.480;-2.840;2023-12-20T04:48:12;8.50;99.90
83729;DHT22;73707;56.480;-2.840;2023-12-20T04:50:37;8.50;99.90
83729;DHT22;73707;56.480;-2.840;2023-12-20T04:53:03;8.50;99.90
83729;DHT22;73707;56.480;-2.840;2023-12-20T04:55:29;8.50;99.90
83729;DHT22;73707;56.480;-2.840;2023-12-20T04:57:55;8.50;99.90
83729;DHT22;73707;56.480;-2.840;2023-12-20T05:00:21;8.50;99.90
83729;DHT22;73707;56.480;-2.840;2023-12-20T05:02:47;8.50;99.90
83729;DHT22;73707;56.480;-2.840;2023-12-20T05:05:13;8.50;99.90
83729;DHT22;73707;56.480;-2.840;2023-12-20T05:07:40;8.50;99.90
83729;DHT22;73707;56.480;-2.840;2023-12-20T05:10:06;8.50;99.90
83729;DHT22;73707;56.480;-2.840;2023-12-20T05:12:34;8.50;99.90
83729;DHT22;73707;56.480;-2.840;2023-12-20T05:15:00;8.50;99.90
83729;DHT22;73707;56.480;-2.840;2023-12-20T05:17:26;8.50;99.90
83729;DHT22;73707;56.480;-2.840;2023-12-20T05:19:52;8.50;99.90
83729;DHT22;73707;56.480;-2.840;2023-12-20T05:22:19;8.50;99.90
83729;DHT22;73707;56.480;-2.840;2023-12-20T05:24:45;8.50;99.90
83729;DHT22;73707;56.480;-2.840;2023-12-20T05:27:11;8.40;99.90
83729;DHT22;73707;56.480;-2.840;2023-12-20T05:29:37;8.40;99.90
83729;DHT22;73707;56.480;-2.840;2023-12-20T05:32:03;8.40;99.90
83729;DHT22;73707;56.480;-2.840;2023-12-20T05:34:30;8.40;99.90
83729;DHT22;73707;56.480;-2.840;2023-12-20T05:36:57;8.40;99.90
83729;DHT22;73707;56.480;-2.840;2023-12-20T05:39:23;8.40;99.90
83729;DHT22;73707;56.480;-2.840;2023-12-20T05:41:48;8.40;99.90
83729;DHT22;73707;56.480;-2.840;2023-12-20T05:44:14;8.40;99.90
83729;DHT22;73707;56.480;-2.840;2023-12-20T05:46:40;8.40;99.90
83729;DHT22;73707;56.480;-2.840;2023-12-20T05:49:06;8.40;99.90
83729;DHT22;73707;56.480;-2.840;2023-12-20T05:51:32;8.40;99.90
83729;DHT22;73707;56.480;-2.840;2023-12-20T05:53:58;8.40;99.90
83729;DHT22;73707;56.480;-2.840;2023-12-20T05:56:26;8.40;99.90
83729;DHT22;73707;56.480;-2.840;2023-12-20T05:58:52;8.40;99.60
83729;DHT22;73707;56.480;-2.840;2023-12-20T06:01:17;8.40;99.90
83729;DHT22;73707;56.480;-2.840;2023-12-20T06:03:43;8.30;99.60
83729;DHT22;73707;56.480;-2.840;2023-12-20T06:06:09;8.30;99.60
83729;DHT22;73707;56.480;-2.840;2023-12-20T06:08:36;8.30;99.70
83729;DHT22;73707;56.480;-2.840;2023-12-20T06:11:01;8.30;99.70
83729;DHT22;73707;56.480;-2.840;2023-12-20T06:13:27;8.30;99.60
83729;DHT22;73707;56.480;-2.840;2023-12-20T06:15:56;8.30;99.30
83729;DHT22;73707;56.480;-2.840;2023-12-20T06:18:22;8.30;99.40
83729;DHT22;73707;56.480;-2.840;2023-12-20T06:20:48;8.30;99.30
83729;DHT22;73707;56.480;-2.840;2023-12-20T06:23:13;8.30;99.30
83729;DHT22;73707;56.480;-2.840;2023-12-20T06:25:39;8.30;99.30
83729;DHT22;73707;56.480;-2.840;2023-12-20T06:28:05;8.30;99.70
83729;DHT22;73707;56.480;-2.840;2023-12-20T06:30:31;8.30;99.70
83729;DHT22;73707;56.480;-2.840;2023-12-20T06:32:58;8.30;99.20
83729;DHT22;73707;56.480;-2.840;2023-12-20T06:35:24;8.30;99.20
83729;DHT22;73707;56.480;-2.840;2023-12-20T06:37:50;8.30;98.90
83729;DHT22;73707;56.480;-2.840;2023-12-20T06:40:16;8.30;99.10
83729;DHT22;73707;56.480;-2.840;2023-12-20T06:42:41;8.30;99.00
83729;DHT22;73707;56.480;-2.840;2023-12-20T06:45:10;8.30;99.30
83729;DHT22;73707;56.480;-2.840;2023-12-20T06:47:36;8.30;99.30
83729;DHT22;73707;56.480;-2.840;2023-12-20T06:50:01;8.30;99.40
83729;DHT22;73707;56.480;-2.840;2023-12-20T06:52:27;8.40;99.30
83729;DHT22;73707;56.480;-2.840;2023-12-20T06:54:53;8.40;99.20
83729;DHT22;73707;56.480;-2.840;2023-12-20T06:57:18;8.30;99.20
83729;DHT22;73707;56.480;-2.840;2023-12-20T06:59:45;8.30;99.10
83729;DHT22;73707;56.480;-2.840;2023-12-20T07:02:11;8.30;99.30
83729;DHT22;73707;56.480;-2.840;2023-12-20T07:04:40;8.40;99.00
83729;DHT22;73707;56.480;-2.840;2023-12-20T07:07:06;8.40;99.10
83729;DHT22;73707;56.480;-2.840;2023-12-20T07:09:32;8.40;99.00
83729;DHT22;73707;56.480;-2.840;2023-12-20T07:11:58;8.40;99.30
83729;DHT22;73707;56.480;-2.840;2023-12-20T07:14:24;8.40;99.30
83729;DHT22;73707;56.480;-2.840;2023-12-20T07:16:50;8.40;99.30
83729;DHT22;73707;56.480;-2.840;2023-12-20T07:19:15;8.40;99.40
83729;DHT22;73707;56.480;-2.840;2023-12-20T07:21:41;8.50;99.50
83729;DHT22;73707;56.480;-2.840;2023-12-20T07:24:07;8.50;99.60
83729;DHT22;73707;56.480;-2.840;2023-12-20T07:26:32;8.50;99.30
83729;DHT22;73707;56.480;-2.840;2023-12-20T07:28:59;8.50;99.30
83729;DHT22;73707;56.480;-2.840;2023-12-20T07:31:25;8.50;99.60
83729;DHT22;73707;56.480;-2.840;2023-12-20T07:33:50;8.60;99.60
83729;DHT22;73707;56.480;-2.840;2023-12-20T07:36:16;8.60;99.60
83729;DHT22;73707;56.480;-2.840;2023-12-20T07:38:42;8.60;99.40
83729;DHT22;73707;56.480;-2.840;2023-12-20T07:41:10;8.60;99.60
83729;DHT22;73707;56.480;-2.840;2023-12-20T07:43:36;8.70;99.30
83729;DHT22;73707;56.480;-2.840;2023-12-20T07:46:09;8.70;99.60
83729;DHT22;73707;56.480;-2.840;2023-12-20T07:48:35;8.70;99.70
83729;DHT22;73707;56.480;-2.840;2023-12-20T07:51:01;8.70;99.60
83729;DHT22;73707;56.480;-2.840;2023-12-20T07:53:27;8.70;99.80
83729;DHT22;73707;56.480;-2.840;2023-12-20T07:55:53;8.70;99.90
83729;DHT22;73707;56.480;-2.840;2023-12-20T07:58:20;8.70;99.90
83729;DHT22;73707;56.480;-2.840;2023-12-20T08:00:45;8.70;99.80
83729;DHT22;73707;56.480;-2.840;2023-12-20T08:03:11;8.80;99.60
83729;DHT22;73707;56.480;-2.840;2023-12-20T08:05:39;8.70;99.80
83729;DHT22;73707;56.480;-2.840;2023-12-20T08:08:07;8.80;99.90
83729;DHT22;73707;56.480;-2.840;2023-12-20T08:10:33;8.80;99.90
83729;DHT22;73707;56.480;-2.840;2023-12-20T08:12:59;8.80;99.70
83729;DHT22;73707;56.480;-2.840;2023-12-20T08:15:24;8.80;99.60
83729;DHT22;73707;56.480;-2.840;2023-12-20T08:17:50;8.90;99.90
83729;DHT22;73707;56.480;-2.840;2023-12-20T08:20:18;8.90;99.90
83729;DHT22;73707;56.480;-2.840;2023-12-20T08:22:44;8.90;99.80
83729;DHT22;73707;56.480;-2.840;2023-12-20T08:25:10;8.90;99.90
83729;DHT22;73707;56.480;-2.840;2023-12-20T08:27:41;9.00;99.90
83729;DHT22;73707;56.480;-2.840;2023-12-20T08:30:10;9.00;99.90
83729;DHT22;73707;56.480;-2.840;2023-12-20T08:32:36;9.10;99.90
83729;DHT22;73707;56.480;-2.840;2023-12-20T08:35:02;9.10;99.80
83729;DHT22;73707;56.480;-2.840;2023-12-20T08:37:28;9.10;99.70
83729;DHT22;73707;56.480;-2.840;2023-12-20T08:39:55;9.10;99.70
83729;DHT22;73707;56.480;-2.840;2023-12-20T08:42:21;9.10;99.40
83729;DHT22;73707;56.480;-2.840;2023-12-20T08:44:47;9.10;99.60
83729;DHT22;73707;56.480;-2.840;2023-12-20T08:47:12;9.20;99.40
83729;DHT22;73707;56.480;-2.840;2023-12-20T08:49:41;9.10;99.40
83729;DHT22;73707;56.480;-2.840;2023-12-20T08:52:07;9.20;99.50
83729;DHT22;73707;56.480;-2.840;2023-12-20T08:54:32;9.20;99.40
83729;DHT22;73707;56.480;-2.840;2023-12-20T08:56:58;9.20;99.10
83729;DHT22;73707;56.480;-2.840;2023-12-20T08:59:24;9.20;99.40
83729;DHT22;73707;56.480;-2.840;2023-12-20T09:01:49;9.20;99.60
83729;DHT22;73707;56.480;-2.840;2023-12-20T09:04:20;9.20;99.90
83729;DHT22;73707;56.480;-2.840;2023-12-20T09:06:45;9.20;99.60
83729;DHT22;73707;56.480;-2.840;2023-12-20T09:09:11;9.20;99.60
83729;DHT22;73707;56.480;-2.840;2023-12-20T09:11:39;9.30;99.90
83729;DHT22;73707;56.480;-2.840;2023-12-20T09:14:04;9.30;99.90
83729;DHT22;73707;56.480;-2.840;2023-12-20T09:16:30;9.30;99.90
83729;DHT22;73707;56.480;-2.840;2023-12-20T09:18:57;9.30;99.90
83729;DHT22;73707;56.480;-2.840;2023-12-20T09:21:23;9.30;99.90
83729;DHT22;73707;56.480;-2.840;2023-12-20T09:23:48;9.30;99.90
83729;DHT22;73707;56.480;-2.840;2023-12-20T09:26:14;9.30;99.90
83729;DHT22;73707;56.480;-2.840;2023-12-20T09:28:40;9.40;99.90
83729;DHT22;73707;56.480;-2.840;2023-12-20T09:31:06;9.40;99.90
83729;DHT22;73707;56.480;-2.840;2023-12-20T09:33:32;9.40;99.90
83729;DHT22;73707;56.480;-2.840;2023-12-20T09:35:58;9.40;99.90
83729;DHT22;73707;56.480;-2.840;2023-12-20T09:38:24;9.40;99.90
83729;DHT22;73707;56.480;-2.840;2023-12-20T09:40:50;9.40;99.90
83729;DHT22;73707;56.480;-2.840;2023-12-20T09:43:18;9.40;99.90
83729;DHT22;73707;56.480;-2.840;2023-12-20T09:45:46;9.40;99.90
83729;DHT22;73707;56.480;-2.840;2023-12-20T09:48:13;9.40;99.90
83729;DHT22;73707;56.480;-2.840;2023-12-20T09:50:40;9.40;99.90
83729;DHT22;73707;56.480;-2.840;2023-12-20T09:53:08;9.40;99.90
83729;DHT22;73707;56.480;-2.840;2023-12-20T09:55:36;9.40;99.90
83729;DHT22;73707;56.480;-2.840;2023-12-20T09:58:02;9.40;99.90
83729;DHT22;73707;56.480;-2.840;2023-12-20T10:00:28;9.40;99.90
83729;DHT22;73707;56.480;-2.840;2023-12-20T10:02:57;9.40;99.90
83729;DHT22;73707;56.480;-2.840;2023-12-20T10:05:33;9.50;99.90
83729;DHT22;73707;56.480;-2.840;2023-12-20T10:07:59;9.50;99.90
83729;DHT22;73707;56.480;-2.840;2023-12-20T10:10:26;9.50;99.90
83729;DHT22;73707;56.480;-2.840;2023-12-20T10:13:05;9.50;99.90
83729;DHT22;73707;56.480;-2.840;2023-12-20T10:15:35;9.60;99.90
83729;DHT22;73707;56.480;-2.840;2023-12-20T10:18:02;9.60;99.90
83729;DHT22;73707;56.480;-2.840;2023-12-20T10:20:28;9.60;99.90
83729;DHT22;73707;56.480;-2.840;2023-12-20T10:22:55;9.70;99.90
83729;DHT22;73707;56.480;-2.840;2023-12-20T10:25:21;9.70;99.90
83729;DHT22;73707;56.480;-2.840;2023-12-20T10:27:47;9.80;99.90
83729;DHT22;73707;56.480;-2.840;2023-12-20T10:30:14;9.80;99.90
83729;DHT22;73707;56.480;-2.840;2023-12-20T10:32:40;9.80;99.90
83729;DHT22;73707;56.480;-2.840;2023-12-20T10:35:06;9.90;99.90
83729;DHT22;73707;56.480;-2.840;2023-12-20T10:37:37;9.90;99.90
83729;DHT22;73707;56.480;-2.840;2023-12-20T10:40:04;9.90;99.90
83729;DHT22;73707;56.480;-2.840;2023-12-20T10:42:32;10.00;99.90
83729;DHT22;73707;56.480;-2.840;2023-12-20T10:44:59;10.00;99.90
83729;DHT22;73707;56.480;-2.840;2023-12-20T10:47:25;10.10;99.90
83729;DHT22;73707;56.480;-2.840;2023-12-20T10:49:52;10.10;99.90
83729;DHT22;73707;56.480;-2.840;2023-12-20T10:52:19;10.20;99.90
83729;DHT22;73707;56.480;-2.840;2023-12-20T10:54:48;10.20;99.90
83729;DHT22;73707;56.480;-2.840;2023-12-20T10:57:16;10.20;99.90
83729;DHT22;73707;56.480;-2.840;2023-12-20T10:59:45;10.30;99.90
83729;DHT22;73707;56.480;-2.840;2023-12-20T11:02:14;10.30;99.90
83729;DHT22;73707;56.480;-2.840;2023-12-20T11:04:57;10.40;99.90
83729;DHT22;73707;56.480;-2.840;2023-12-20T11:07:42;10.50;99.90
83729;DHT22;73707;56.480;-2.840;2023-12-20T11:10:24;10.50;99.90
83729;DHT22;73707;56.480;-2.840;2023-12-20T11:12:58;10.60;99.90
83729;DHT22;73707;56.480;-2.840;2023-12-20T11:15:26;10.60;99.90
83729;DHT22;73707;56.480;-2.840;2023-12-20T11:17:56;10.70;99.90
83729;DHT22;73707;56.480;-2.840;2023-12-20T11:20:23;10.70;99.90
83729;DHT22;73707;56.480;-2.840;2023-12-20T11:22:53;10.80;99.90
83729;DHT22;73707;56.480;-2.840;2023-12-20T11:25:19;10.80;99.90
83729;DHT22;73707;56.480;-2.840;2023-12-20T11:28:08;10.90;99.90
83729;DHT22;73707;56.480;-2.840;2023-12-20T11:30:50;11.00;99.90
83729;DHT22;73707;56.480;-2.840;2023-12-20T11:33:16;11.00;99.90
83729;DHT22;73707;56.480;-2.840;2023-12-20T11:35:43;11.00;99.90
83729;DHT22;73707;56.480;-2.840;2023-12-20T11:38:10;11.10;99.90
83729;DHT22;73707;56.480;-2.840;2023-12-20T11:40:36;11.10;99.90
83729;DHT22;73707;56.480;-2.840;2023-12-20T11:43:03;11.10;99.90
83729;DHT22;73707;56.480;-2.840;2023-12-20T11:45:29;11.10;99.90
83729;DHT22;73707;56.480;-2.840;2023-12-20T11:47:56;11.20;99.90
83729;DHT22;73707;56.480;-2.840;2023-12-20T11:50:23;11.20;99.90
83729;DHT22;73707;56.480;-2.840;2023-12-20T11:52:51;11.30;99.90
83729;DHT22;73707;56.480;-2.840;2023-12-20T11:55:17;11.30;99.90
83729;DHT22;73707;56.480;-2.840;2023-12-20T11:57:43;11.30;99.90
83729;DHT22;73707;56.480;-2.840;2023-12-20T12:00:10;11.40;99.90
83729;DHT22;73707;56.480;-2.840;2023-12-20T12:02:36;11.40;99.90
83729;DHT22;73707;56.480;-2.840;2023-12-20T12:05:02;11.50;99.90
83729;DHT22;73707;56.480;-2.840;2023-12-20T12:07:31;11.50;99.90
83729;DHT22;73707;56.480;-2.840;2023-12-20T12:09:57;11.60;99.90
83729;DHT22;73707;56.480;-2.840;2023-12-20T12:12:23;11.60;99.90
83729;DHT22;73707;56.480;-2.840;2023-12-20T12:14:50;11.60;99.90
83729;DHT22;73707;56.480;-2.840;2023-12-20T12:17:16;11.70;99.90
83729;DHT22;73707;56.480;-2.840;2023-12-20T12:19:43;11.70;99.90
83729;DHT22;73707;56.480;-2.840;2023-12-20T12:22:11;11.70;99.90
83729;DHT22;73707;56.480;-2.840;2023-12-20T12:24:46;11.80;99.90
83729;DHT22;73707;56.480;-2.840;2023-12-20T12:27:15;11.80;99.90
83729;DHT22;73707;56.480;-2.840;2023-12-20T12:29:43;11.80;99.90
83729;DHT22;73707;56.480;-2.840;2023-12-20T12:32:25;11.80;99.90
83729;DHT22;73707;56.480;-2.840;2023-12-20T12:34:51;11.80;99.90
83729;DHT22;73707;56.480;-2.840;2023-12-20T12:37:17;11.90;99.90
83729;DHT22;73707;56.480;-2.840;2023-12-20T12:39:42;11.90;99.90
83729;DHT22;73707;56.480;-2.840;2023-12-20T12:42:08;11.90;99.90
83729;DHT22;73707;56.480;-2.840;2023-12-20T12:44:34;11.90;99.90
83729;DHT22;73707;56.480;-2.840;2023-12-20T12:47:00;12.00;99.90
83729;DHT22;73707;56.480;-2.840;2023-12-20T12:49:28;12.00;99.90
83729;DHT22;73707;56.480;-2.840;2023-12-20T12:51:54;12.00;99.90
83729;DHT22;73707;56.480;-2.840;2023-12-20T12:54:23;12.10;99.90
83729;DHT22;73707;56.480;-2.840;2023-12-20T12:56:49;12.10;99.90
83729;DHT22;73707;56.480;-2.840;2023-12-20T12:59:16;12.20;99.90
83729;DHT22;73707;56.480;-2.840;2023-12-20T13:01:41;12.20;99.90
83729;DHT22;73707;56.480;-2.840;2023-12-20T13:04:08;12.30;99.90
83729;DHT22;73707;56.480;-2.840;2023-12-20T13:06:37;12.30;99.90
83729;DHT22;73707;56.480;-2.840;2023-12-20T13:09:03;12.30;99.90
83729;DHT22;73707;56.480;-2.840;2023-12-20T13:11:30;12.40;99.90
83729;DHT22;73707;56.480;-2.840;2023-12-20T13:13:57;12.40;99.90
83729;DHT22;73707;56.480;-2.840;2023-12-20T13:16:23;12.40;99.90
83729;DHT22;73707;56.480;-2.840;2023-12-20T13:18:50;12.40;99.90
83729;DHT22;73707;56.480;-2.840;2023-12-20T13:21:16;12.40;99.90
83729;DHT22;73707;56.480;-2.840;2023-12-20T13:23:42;12.40;99.90
83729;DHT22;73707;56.480;-2.840;2023-12-20T13:26:08;12.50;99.90
83729;DHT22;73707;56.480;-2.840;2023-12-20T13:28:34;12.50;99.90
83729;DHT22;73707;56.480;-2.840;2023-12-20T13:30:59;12.50;99.90
83729;DHT22;73707;56.480;-2.840;2023-12-20T13:33:25;12.50;99.90
83729;DHT22;73707;56.480;-2.840;2023-12-20T13:35:51;12.50;99.90
83729;DHT22;73707;56.480;-2.840;2023-12-20T13:38:17;12.50;99.90
83729;DHT22;73707;56.480;-2.840;2023-12-20T13:40:43;12.50;99.90
83729;DHT22;73707;56.480;-2.840;2023-12-20T13:43:09;12.60;99.90
83729;DHT22;73707;56.480;-2.840;2023-12-20T13:45:37;12.60;99.90
83729;DHT22;73707;56.480;-2.840;2023-12-20T13:48:03;12.70;99.90
83729;DHT22;73707;56.480;-2.840;2023-12-20T13:50:28;12.70;99.90
83729;DHT22;73707;56.480;-2.840;2023-12-20T13:52:54;12.70;99.90
83729;DHT22;73707;56.480;-2.840;2023-12-20T13:55:20;12.70;99.90
83729;DHT22;73707;56.480;-2.840;2023-12-20T13:57:50;12.70;99.90
83729;DHT22;73707;56.480;-2.840;2023-12-20T14:00:16;12.70;99.90
83729;DHT22;73707;56.480;-2.840;2023-12-20T14:02:42;12.70;99.90
83729;DHT22;73707;56.480;-2.840;2023-12-20T14:05:09;12.60;99.90
83729;DHT22;73707;56.480;-2.840;2023-12-20T14:07:35;12.70;99.90
83729;DHT22;73707;56.480;-2.840;2023-12-20T14:10:01;12.70;99.90
83729;DHT22;73707;56.480;-2.840;2023-12-20T14:12:27;12.60;99.90
83729;DHT22;73707;56.480;-2.840;2023-12-20T14:14:52;12.60;99.90
83729;DHT22;73707;56.480;-2.840;2023-12-20T14:17:21;12.60;99.90
83729;DHT22;73707;56.480;-2.840;2023-12-20T14:19:47;12.60;99.90
83729;DHT22;73707;56.480;-2.840;2023-12-20T14:22:12;12.50;99.90
83729;DHT22;73707;56.480;-2.840;2023-12-20T14:24:42;12.50;99.90
83729;DHT22;73707;56.480;-2.840;2023-12-20T14:27:08;12.50;99.90
83729;DHT22;73707;56.480;-2.840;2023-12-20T14:29:35;12.50;99.90
83729;DHT22;73707;56.480;-2.840;2023-12-20T14:32:00;12.50;99.90
83729;DHT22;73707;56.480;-2.840;2023-12-20T14:34:28;12.50;99.90
83729;DHT22;73707;56.480;-2.840;2023-12-20T14:36:54;12.60;99.90
83729;DHT22;73707;56.480;-2.840;2023-12-20T14:39:20;12.60;99.90
83729;DHT22;73707;56.480;-2.840;2023-12-20T14:41:45;12.60;99.90
83729;DHT22;73707;56.480;-2.840;2023-12-20T14:44:11;12.70;99.90
83729;DHT22;73707;56.480;-2.840;2023-12-20T14:46:37;12.70;99.90
83729;DHT22;73707;56.480;-2.840;2023-12-20T14:49:04;12.70;99.90
83729;DHT22;73707;56.480;-2.840;2023-12-20T14:51:30;12.70;99.80
83729;DHT22;73707;56.480;-2.840;2023-12-20T14:53:55;12.60;99.90
83729;DHT22;73707;56.480;-2.840;2023-12-20T14:56:23;12.60;99.80
83729;DHT22;73707;56.480;-2.840;2023-12-20T14:58:49;12.60;99.90
83729;DHT22;73707;56.480;-2.840;2023-12-20T15:01:15;12.50;99.90
83729;DHT22;73707;56.480;-2.840;2023-12-20T15:03:40;12.60;99.90
83729;DHT22;73707;56.480;-2.840;2023-12-20T15:06:06;12.50;99.90
83729;DHT22;73707;56.480;-2.840;2023-12-20T15:08:32;12.50;99.90
83729;DHT22;73707;56.480;-2.840;2023-12-20T15:10:58;12.50;99.90
83729;DHT22;73707;56.480;-2.840;2023-12-20T15:13:24;12.50;99.90
83729;DHT22;73707;56.480;-2.840;2023-12-20T15:15:50;12.50;99.90
83729;DHT22;73707;56.480;-2.840;2023-12-20T15:18:16;12.40;99.90
83729;DHT22;73707;56.480;-2.840;2023-12-20T15:20:41;12.50;99.80
83729;DHT22;73707;56.480;-2.840;2023-12-20T15:23:09;12.40;99.90